Time;durP1;ratioP1;P1;durP2;ratioP2;P2;SDS_P1;SDS_P2;PMS_P1;PMS_P2;Temp;Humidity;BMP_temperature;BMP_pressure;BME280_temperature;BME280_humidity;BME280_pressure;Samples;Min_cycle;Max_cycle;Signal;HPM_P1;HPM_P2
2022/10/28 00:48:07;;;;;;;9.50;4.77;;;;;;;40.18;35.70;101054.75;5163770;27;20348;-73
2022/10/28 00:50:50;;;;;;;11.63;6.30;;;;;;;40.62;35.29;101055.63;5131698;27;20431;-71
2022/10/28 00:53:28;;;;;;;13.97;6.63;;;;;;;40.86;35.11;101048.88;5131754;27;20442;-70
2022/10/28 00:55:56;;;;;;;14.30;6.17;;;;;;;40.73;34.92;101040.56;5149750;27;20449;-70
2022/10/28 00:58:25;;;;;;;10.97;6.50;;;;;;;40.66;35.12;101032.09;5134396;27;20487;-71
2022/10/28 01:00:51;;;;;;;14.67;7.90;;;;;;;40.80;34.94;101013.69;5140098;27;20419;-71
2022/10/28 01:03:17;;;;;;;15.23;6.77;;;;;;;40.84;35.06;101011.13;5144500;27;20798;-71
2022/10/28 01:05:48;;;;;;;16.40;8.27;;;;;;;40.49;35.61;101013.88;5149917;27;20426;-71
2022/10/28 01:08:16;;;;;;;14.50;8.20;;;;;;;40.52;35.76;101001.56;5149584;27;20430;-71
2022/10/28 01:11:06;;;;;;;18.23;9.83;;;;;;;40.41;36.07;101001.06;5149430;27;20475;-71
2022/10/28 01:14:05;;;;;;;22.93;7.00;;;;;;;40.45;35.84;100996.56;5150795;27;20405;-71
2022/10/28 01:16:40;;;;;;;14.93;8.33;;;;;;;40.86;35.03;100995.28;5149189;27;20466;-71
2022/10/28 01:19:52;;;;;;;20.60;9.20;;;;;;;40.71;35.63;101007.47;5149123;27;20425;-71
2022/10/28 01:22:57;;;;;;;17.03;6.70;;;;;;;40.84;34.91;101004.88;5149118;27;20467;-70
2022/10/28 01:25:57;;;;;;;24.87;7.60;;;;;;;40.89;35.16;100986.47;5142943;27;20441;-71
2022/10/28 01:28:29;;;;;;;11.63;7.47;;;;;;;41.27;34.64;100989.25;5140236;27;20526;-73
2022/10/28 01:31:16;;;;;;;17.07;8.50;;;;;;;41.47;34.83;100993.19;5149038;27;20467;-73
2022/10/28 01:34:04;;;;;;;11.93;7.60;;;;;;;41.47;34.33;100997.84;5150575;27;20395;-71
2022/10/28 01:36:38;;;;;;;15.60;8.27;;;;;;;41.16;35.12;100989.94;5140160;27;20474;-71
2022/10/28 01:39:23;;;;;;;12.67;8.00;;;;;;;41.01;35.12;100986.63;5129666;27;20411;-70
2022/10/28 01:42:00;;;;;;;20.10;6.87;;;;;;;41.21;34.92;100978.88;5128214;28;20969;-71
2022/10/28 01:44:33;;;;;;;14.70;7.90;;;;;;;41.23;34.96;100971.19;5113704;28;20434;-71
2022/10/28 01:47:36;;;;;;;14.13;8.47;;;;;;;41.43;34.92;100980.56;5125928;28;20479;-71
2022/10/28 01:50:05;;;;;;;14.43;6.60;;;;;;;41.56;34.24;100985.78;5103888;28;20430;-73
2022/10/28 01:52:32;;;;;;;22.70;7.87;;;;;;;41.41;34.65;100978.16;5114337;28;20477;-73
2022/10/28 01:55:07;;;;;;;15.97;8.33;;;;;;;41.39;34.19;100985.09;5114164;28;20450;-71
2022/10/28 01:57:36;;;;;;;18.73;7.23;;;;;;;40.21;35.88;100986.19;5114242;28;20947;-71
2022/10/28 02:00:03;;;;;;;15.63;7.23;;;;;;;39.78;36.99;100985.28;5113967;28;20428;-71
2022/10/28 02:02:35;;;;;;;10.30;6.87;;;;;;;39.75;36.70;100990.25;5114229;28;20989;-70
2022/10/28 02:05:25;;;;;;;18.53;8.00;;;;;;;38.43;38.90;100999.03;5113881;28;21013;-71
2022/10/28 02:07:58;;;;;;;9.23;5.67;;;;;;;39.69;37.35;100996.94;5113962;28;20420;-71
2022/10/28 02:10:32;;;;;;;16.83;6.80;;;;;;;39.82;36.67;100984.34;5114032;28;20428;-71
2022/10/28 02:13:04;;;;;;;18.03;7.90;;;;;;;40.14;36.32;100998.63;5100192;28;20939;-71
2022/10/28 02:15:36;;;;;;;16.20;7.27;;;;;;;39.88;36.18;100993.13;5099974;28;20424;-71
2022/10/28 02:18:34;;;;;;;12.23;7.43;;;;;;;40.29;35.19;100987.31;5113837;28;20455;-71
2022/10/28 02:21:05;;;;;;;13.37;6.10;;;;;;;40.48;35.28;100984.28;5114124;28;20412;-71
2022/10/28 02:23:42;;;;;;;11.23;6.97;;;;;;;40.70;35.00;100986.00;5113523;28;20446;-71
2022/10/28 02:26:16;;;;;;;13.07;7.43;;;;;;;41.03;34.13;100989.03;5113540;28;20455;-71
2022/10/28 02:28:55;;;;;;;17.33;7.50;;;;;;;41.25;34.03;100988.78;5113550;28;20447;-71
2022/10/28 02:31:39;;;;;;;12.50;7.60;;;;;;;40.94;33.84;100991.75;5115099;28;20415;-70
2022/10/28 02:34:11;;;;;;;15.67;7.83;;;;;;;40.53;34.38;100987.66;5114899;28;20412;-71
2022/10/28 02:36:41;;;;;;;9.73;6.63;;;;;;;40.53;34.90;100986.84;5113385;28;20428;-70
2022/10/28 02:39:07;;;;;;;17.13;11.07;;;;;;;40.25;35.09;100987.13;5113234;28;20438;-71
2022/10/28 02:41:39;;;;;;;19.03;8.90;;;;;;;39.65;35.63;100976.94;5113433;28;20511;-71
2022/10/28 02:44:10;;;;;;;11.00;7.97;;;;;;;39.39;36.07;100970.59;5113254;28;20966;-71
2022/10/28 02:46:40;;;;;;;11.53;7.57;;;;;;;39.98;35.29;100963.75;5113065;28;20486;-70
2022/10/28 02:49:11;;;;;;;12.20;8.10;;;;;;;40.11;34.99;100969.41;5113271;28;20416;-71
2022/10/28 02:51:47;;;;;;;10.90;6.27;;;;;;;40.42;34.76;100967.31;5113142;28;20424;-71
2022/10/28 02:54:21;;;;;;;9.30;6.27;;;;;;;40.58;34.34;100975.81;5113128;28;20443;-73
2022/10/28 02:57:05;;;;;;;10.13;6.70;;;;;;;40.49;34.60;100981.25;5112993;28;20495;-73
2022/10/28 02:59:31;;;;;;;11.20;6.13;;;;;;;39.85;35.48;100986.44;5113312;28;20404;-71
2022/10/28 03:01:57;;;;;;;11.60;5.27;;;;;;;40.18;34.79;100986.03;5113049;28;20416;-71
2022/10/28 03:04:23;;;;;;;10.53;5.83;;;;;;;39.88;34.88;100983.06;5112986;28;20444;-70
2022/10/28 03:22:00;;;;;;;10.60;7.03;;;;;;;41.08;33.69;100989.66;5163754;27;20348;-73
2022/10/28 03:24:26;;;;;;;11.80;7.07;;;;;;;41.21;33.68;100985.13;5131528;27;20971;-70
2022/10/28 03:26:51;;;;;;;11.67;6.97;;;;;;;41.05;33.13;100979.41;5129497;27;20533;-71
2022/10/28 03:29:17;;;;;;;12.63;6.70;;;;;;;40.64;34.28;100973.69;5149687;27;20416;-71
2022/10/28 03:31:43;;;;;;;15.57;9.20;;;;;;;40.16;34.80;100970.03;5148950;27;20532;-71
2022/10/28 03:34:09;;;;;;;19.80;8.97;;;;;;;40.55;34.86;100974.53;5149538;27;20467;-70
2022/10/28 03:36:35;;;;;;;14.80;7.87;;;;;;;40.66;34.57;100976.91;5149546;27;20418;-71
2022/10/28 03:39:01;;;;;;;13.20;8.57;;;;;;;40.57;34.25;100971.47;5134798;27;20415;-70
2022/10/28 03:41:27;;;;;;;15.83;9.57;;;;;;;40.66;34.80;100971.47;5149605;27;20417;-71
2022/10/28 03:43:53;;;;;;;15.03;9.37;;;;;;;40.72;34.24;100972.91;5149382;27;20441;-71
2022/10/28 03:46:19;;;;;;;25.07;10.53;;;;;;;40.94;34.22;100974.63;5149406;27;20422;-71
2022/10/28 03:48:45;;;;;;;15.90;11.50;;;;;;;40.74;34.68;100987.78;5136938;27;20449;-71
2022/10/28 03:51:11;;;;;;;16.63;10.03;;;;;;;40.73;34.49;100980.75;5147088;27;20584;-71
2022/10/28 03:53:37;;;;;;;15.53;9.50;;;;;;;40.54;34.90;100988.44;5138839;27;20426;-71
2022/10/28 03:56:03;;;;;;;20.43;10.00;;;;;;;40.40;34.87;101004.91;5146507;27;20442;-71
2022/10/28 03:58:29;;;;;;;17.47;11.50;;;;;;;40.30;35.18;100999.78;5149339;27;20242;-71
2022/10/28 04:00:56;;;;;;;17.60;10.53;;;;;;;39.73;36.29;101006.06;5150616;27;20414;-70
2022/10/28 04:03:24;;;;;;;21.70;9.80;;;;;;;40.12;35.82;101003.59;5148950;27;20446;-72
2022/10/28 04:05:50;;;;;;;20.17;11.10;;;;;;;40.03;35.64;101000.84;5135934;27;20419;-73
2022/10/28 04:08:17;;;;;;;18.13;10.37;;;;;;;40.41;35.57;101005.69;5128512;27;20538;-73
2022/10/28 04:10:44;;;;;;;23.33;13.80;;;;;;;40.60;34.93;101008.13;5134366;27;20466;-73
2022/10/28 04:13:11;;;;;;;16.90;12.77;;;;;;;39.91;36.14;101004.19;5129522;27;20494;-71
2022/10/28 04:15:37;;;;;;;28.33;13.97;;;;;;;40.60;35.27;101008.13;5118666;28;20420;-71
2022/10/28 04:18:04;;;;;;;21.37;13.83;;;;;;;40.81;35.02;101009.84;5108838;28;20962;-71
2022/10/28 04:20:31;;;;;;;23.70;14.93;;;;;;;40.97;34.33;101009.38;5121338;28;20459;-71
2022/10/28 04:22:57;;;;;;;17.20;13.77;;;;;;;40.99;34.22;101016.06;5093823;28;20417;-71
2022/10/28 04:25:25;;;;;;;19.33;15.00;;;;;;;40.78;34.51;101015.94;5093816;28;20437;-71
2022/10/28 04:27:51;;;;;;;22.20;13.27;;;;;;;40.81;34.73;101009.03;5106511;28;20433;-73
2022/10/28 04:30:17;;;;;;;17.33;11.20;;;;;;;40.84;34.48;101011.13;5099510;28;20661;-73
2022/10/28 04:32:44;;;;;;;20.30;12.70;;;;;;;40.43;35.49;101011.59;5104975;28;20425;-71
2022/10/28 04:35:11;;;;;;;21.40;12.73;;;;;;;40.23;36.03;101010.31;5094862;28;20478;-71
2022/10/28 04:37:39;;;;;;;21.73;14.00;;;;;;;40.41;35.40;101011.94;5106576;28;20429;-73
2022/10/28 04:40:06;;;;;;;25.00;12.90;;;;;;;40.43;35.44;101012.41;5093684;28;20581;-73
2022/10/28 04:42:33;;;;;;;24.20;13.07;;;;;;;40.13;36.05;101007.91;5093557;28;20428;-72
2022/10/28 04:44:58;;;;;;;19.53;13.67;;;;;;;40.09;35.80;101009.69;5093535;28;20420;-71
2022/10/28 04:47:24;;;;;;;19.77;13.80;;;;;;;40.12;36.05;101012.53;5093446;28;20436;-72
2022/10/28 04:49:51;;;;;;;16.10;11.20;;;;;;;40.00;35.94;101012.34;5093671;28;20817;-71
2022/10/28 04:52:17;;;;;;;25.97;13.40;;;;;;;39.97;36.39;101015.69;5095256;28;20852;-71
2022/10/28 04:54:43;;;;;;;21.80;14.43;;;;;;;39.91;36.30;101015.06;5105933;28;20940;-71
2022/10/28 04:57:09;;;;;;;21.30;14.30;;;;;;;39.65;36.96;101017.66;5093198;28;20183;-70
2022/10/28 04:59:35;;;;;;;21.47;12.63;;;;;;;39.97;36.41;101021.13;5107926;28;20920;-72
2022/10/28 05:02:00;;;;;;;18.80;11.47;;;;;;;40.01;36.24;101022.09;5093421;28;20427;-71
2022/10/28 05:04:26;;;;;;;18.80;13.13;;;;;;;39.26;37.25;101023.06;5113027;28;20454;-71
2022/10/28 05:06:52;;;;;;;23.80;11.50;;;;;;;39.89;36.77;101016.47;5103222;28;20474;-71
2022/10/28 05:09:18;;;;;;;25.67;15.03;;;;;;;40.32;35.60;101021.19;5095195;28;20211;-71
2022/10/28 05:11:44;;;;;;;20.23;12.60;;;;;;;40.45;35.49;101012.06;5105107;28;20447;-71
2022/10/28 05:14:10;;;;;;;21.23;13.53;;;;;;;40.26;35.59;101010.47;5093181;28;20429;-72
2022/10/28 05:16:36;;;;;;;17.67;12.30;;;;;;;39.71;36.19;101005.56;5107052;28;20416;-71
2022/10/28 05:19:02;;;;;;;22.53;13.07;;;;;;;39.34;36.73;101014.97;5093008;28;20446;-71
2022/10/28 05:21:28;;;;;;;23.07;14.27;;;;;;;39.59;36.76;101013.47;5092936;28;20468;-70
2022/10/28 05:23:54;;;;;;;22.80;14.07;;;;;;;39.73;36.48;101022.34;5106548;28;20425;-71
2022/10/28 05:26:20;;;;;;;23.77;12.83;;;;;;;40.08;35.65;101027.88;5092809;28;20485;-71
2022/10/28 05:28:49;;;;;;;22.07;12.37;;;;;;;40.32;35.60;101029.34;5092582;28;20962;-71
2022/10/28 05:31:16;;;;;;;19.07;15.87;;;;;;;40.31;35.72;101035.91;5092581;28;20498;-70
2022/10/28 05:33:42;;;;;;;28.33;18.07;;;;;;;40.11;35.71;101032.69;5094471;28;20416;-72
2022/10/28 05:36:09;;;;;;;24.20;15.57;;;;;;;39.78;36.21;101032.28;5112992;28;20511;-72
2022/10/28 05:38:34;;;;;;;22.60;18.17;;;;;;;39.30;36.89;101046.56;5112757;28;21006;-72
2022/10/28 05:41:02;;;;;;;30.33;20.80;;;;;;;39.82;36.50;101044.09;5114270;28;20545;-72
2022/10/28 05:43:28;;;;;;;25.40;17.30;;;;;;;40.27;35.75;101047.44;5112717;28;20444;-72
2022/10/28 05:45:55;;;;;;;27.87;16.83;;;;;;;40.01;35.74;101052.75;5114008;28;20415;-74
2022/10/28 05:48:22;;;;;;;21.60;16.90;;;;;;;39.85;36.55;101054.34;5112626;28;20445;-72
2022/10/28 05:50:48;;;;;;;23.80;19.33;;;;;;;40.17;35.65;101052.38;5112322;28;20448;-72
2022/10/28 05:53:15;;;;;;;30.63;18.30;;;;;;;40.50;35.50;101047.28;5112463;28;20419;-72
2022/10/28 05:55:41;;;;;;;33.73;20.47;;;;;;;40.45;35.38;101048.22;5113734;27;20416;-72
2022/10/28 05:58:08;;;;;;;26.77;18.87;;;;;;;40.12;35.76;101053.31;5112418;28;20469;-72
2022/10/28 06:00:41;;;;;;;28.10;19.20;;;;;;;39.34;36.63;101061.09;5113340;28;20434;-72
2022/10/28 06:03:10;;;;;;;25.53;20.60;;;;;;;39.55;36.82;101061.38;5112372;28;20838;-72
2022/10/28 06:05:41;;;;;;;25.70;18.37;;;;;;;39.80;36.13;101045.53;5100215;28;20441;-70
2022/10/28 06:08:09;;;;;;;30.97;21.87;;;;;;;40.07;35.77;101060.81;5108139;28;20424;-70
2022/10/28 06:10:35;;;;;;;28.43;23.37;;;;;;;39.84;36.27;101054.63;5100894;28;21006;-70
2022/10/28 06:13:01;;;;;;;24.10;19.17;;;;;;;39.79;36.15;101055.59;5092229;28;20436;-70
2022/10/28 06:15:27;;;;;;;28.67;21.67;;;;;;;39.71;36.09;101067.22;5092741;28;20416;-67
2022/10/28 06:17:53;;;;;;;36.97;22.60;;;;;;;40.00;35.87;101077.53;5096117;28;20431;-68
2022/10/28 06:20:20;;;;;;;30.23;19.90;;;;;;;40.42;35.42;101072.53;5096746;28;20478;-69
2022/10/28 06:22:50;;;;;;;23.97;19.43;;;;;;;40.44;35.53;101073.81;5094622;28;20231;-70
2022/10/28 06:25:18;;;;;;;27.00;21.10;;;;;;;39.85;36.43;101070.63;5095969;28;20440;-71
2022/10/28 06:27:44;;;;;;;31.20;20.40;;;;;;;39.89;36.53;101070.78;5093465;28;21001;-69
2022/10/28 06:30:11;;;;;;;28.70;21.83;;;;;;;40.57;35.83;101079.44;5094982;28;20452;-68
2022/10/28 06:32:37;;;;;;;41.00;22.87;;;;;;;40.71;35.50;101072.75;5090083;28;20633;-68
2022/10/28 06:35:03;;;;;;;32.70;27.37;;;;;;;40.08;36.51;101068.63;5089938;28;20421;-67
2022/10/28 06:37:29;;;;;;;44.73;24.73;;;;;;;39.92;36.64;101081.03;5110215;28;20424;-68
2022/10/28 06:39:57;;;;;;;39.63;24.80;;;;;;;40.22;36.56;101080.19;5109553;28;20953;-71
2022/10/28 06:42:23;;;;;;;34.40;25.30;;;;;;;40.00;36.94;101080.25;5109846;28;20210;-68
2022/10/28 06:44:50;;;;;;;41.37;27.97;;;;;;;40.02;36.95;101080.72;5100447;28;21057;-68
2022/10/28 06:47:17;;;;;;;53.47;38.10;;;;;;;40.62;35.94;101088.25;5107066;28;20435;-67
2022/10/28 06:49:43;;;;;;;52.07;31.50;;;;;;;40.94;35.32;101094.34;5111963;28;20448;-67
2022/10/28 06:52:09;;;;;;;37.10;26.70;;;;;;;41.08;34.88;101101.22;5111852;28;20431;-67
2022/10/28 06:54:35;;;;;;;34.97;27.83;;;;;;;41.04;35.53;101102.97;5111509;28;20449;-67
2022/10/28 06:57:00;;;;;;;36.63;24.13;;;;;;;41.29;34.81;101101.31;5112891;28;20182;-67
2022/10/28 06:59:26;;;;;;;37.97;26.67;;;;;;;41.19;35.20;101103.59;5112571;28;20186;-68
2022/10/28 07:01:52;;;;;;;31.20;25.27;;;;;;;41.24;35.10;101106.13;5111525;28;20926;-67
2022/10/28 07:04:18;;;;;;;33.87;22.90;;;;;;;41.30;34.82;101108.38;5111281;28;20947;-66
2022/10/28 07:06:44;;;;;;;36.63;23.60;;;;;;;41.19;34.99;101112.56;5111190;28;20935;-69
2022/10/28 07:09:13;;;;;;;37.07;25.00;;;;;;;41.16;35.00;101112.41;5094170;28;20447;-66
2022/10/28 07:11:43;;;;;;;32.73;23.10;;;;;;;41.04;35.70;101119.31;5111256;28;20519;-67
2022/10/28 07:14:10;;;;;;;33.30;24.57;;;;;;;41.13;35.75;101116.59;5110881;28;20481;-67
2022/10/28 07:16:36;;;;;;;34.60;26.00;;;;;;;41.23;35.56;101116.22;5110900;28;20428;-68
2022/10/28 07:19:02;;;;;;;25.87;23.47;;;;;;;41.28;35.31;101113.34;5112809;28;20510;-67
2022/10/28 07:21:28;;;;;;;26.00;18.80;;;;;;;40.89;35.26;101121.69;5106623;28;20490;-69
2022/10/28 07:23:57;;;;;;;27.40;18.50;;;;;;;40.77;35.98;101125.06;5110983;28;21014;-67
2022/10/28 07:26:24;;;;;;;27.87;21.00;;;;;;;41.10;35.54;101122.66;5110658;28;20878;-67
2022/10/28 07:28:50;;;;;;;29.40;19.00;;;;;;;41.45;35.30;101125.34;5093948;28;20428;-67
2022/10/28 07:31:16;;;;;;;29.43;21.20;;;;;;;41.53;34.89;101127.25;5108885;28;20816;-66
2022/10/28 07:33:43;;;;;;;29.70;18.67;;;;;;;41.40;35.21;101128.25;5105931;28;20528;-67
2022/10/28 07:36:09;;;;;;;29.67;19.43;;;;;;;41.20;35.80;101135.16;5111072;28;20897;-66
2022/10/28 07:38:36;;;;;;;27.60;17.83;;;;;;;41.51;34.87;101124.06;5112184;28;20494;-68
2022/10/28 07:41:07;;;;;;;36.40;20.70;;;;;;;41.53;35.10;101121.78;5110771;28;20749;-68
2022/10/28 07:43:37;;;;;;;28.47;19.00;;;;;;;41.71;35.02;101133.44;5109945;28;20496;-68
2022/10/28 07:46:04;;;;;;;27.90;19.50;;;;;;;41.79;34.88;101144.31;5112542;28;20416;-68
2022/10/28 07:48:30;;;;;;;22.77;19.13;;;;;;;41.85;34.02;101145.75;5111126;28;20427;-67
2022/10/28 07:51:00;;;;;;;22.27;17.70;;;;;;;41.77;34.52;101143.84;5110213;28;20546;-67
2022/10/28 07:53:25;;;;;;;29.43;19.53;;;;;;;41.97;34.51;101152.44;5108947;28;20427;-69
2022/10/28 07:56:00;;;;;;;23.47;19.93;;;;;;;41.84;34.47;101149.59;5109018;28;20421;-68
2022/10/28 07:58:26;;;;;;;24.77;19.90;;;;;;;42.01;34.09;101158.81;5112893;28;20204;-69
2022/10/28 08:00:53;;;;;;;30.27;22.03;;;;;;;41.95;34.19;101162.88;5113988;28;20550;-68
2022/10/28 08:03:19;;;;;;;32.10;21.73;;;;;;;42.14;34.28;101155.06;5112733;28;20419;-66
2022/10/28 08:05:45;;;;;;;37.10;22.30;;;;;;;42.19;34.31;101156.84;5113974;28;20507;-68
2022/10/28 08:08:12;;;;;;;31.80;21.30;;;;;;;42.36;33.75;101163.00;5114574;28;20442;-67
2022/10/28 08:10:38;;;;;;;31.70;23.93;;;;;;;42.05;33.91;101166.03;5114331;28;20515;-67
2022/10/28 08:13:05;;;;;;;25.20;22.17;;;;;;;42.35;34.14;101166.84;5115808;28;20506;-67
2022/10/28 08:15:32;;;;;;;33.07;24.60;;;;;;;42.43;33.34;101176.13;5115677;28;20530;-66
2022/10/28 08:17:58;;;;;;;34.77;26.40;;;;;;;42.39;33.47;101175.97;5097410;28;20823;-68
2022/10/28 08:20:24;;;;;;;31.73;23.60;;;;;;;42.53;33.42;101174.91;5108697;28;20984;-67
2022/10/28 08:22:50;;;;;;;29.87;24.00;;;;;;;41.92;34.31;101172.47;5094142;28;20273;-67
2022/10/28 08:25:16;;;;;;;34.77;27.13;;;;;;;41.41;34.82;101165.25;5077178;28;21039;-71
2022/10/28 08:27:42;;;;;;;38.30;23.97;;;;;;;40.62;36.55;101175.25;5093954;28;20433;-67
2022/10/28 08:30:08;;;;;;;33.10;25.00;;;;;;;41.41;35.12;101176.94;5095286;28;20482;-67
2022/10/28 08:32:34;;;;;;;35.10;25.67;;;;;;;41.75;34.52;101184.25;5106294;28;20183;-67
2022/10/28 08:35:00;;;;;;;39.97;27.80;;;;;;;41.64;34.88;101180.25;5093888;28;20620;-69
2022/10/28 08:37:26;;;;;;;37.77;27.70;;;;;;;42.13;34.04;101175.28;5093576;28;20424;-68
2022/10/28 08:39:52;;;;;;;37.90;26.17;;;;;;;42.24;33.93;101178.47;5093843;28;20948;-68
2022/10/28 08:42:45;;;;;;;35.03;26.70;;;;;;;42.13;33.88;101178.81;5093808;28;20466;-68
2022/10/28 08:45:53;;;;;;;35.70;26.20;;;;;;;41.95;34.24;101181.94;5093548;28;20469;-68
2022/10/28 08:48:30;;;;;;;32.23;25.63;;;;;;;42.06;34.24;101189.44;5035900;28;20430;-68
2022/10/28 08:51:19;;;;;;;40.97;29.60;;;;;;;41.44;34.92;101200.00;5107011;28;20501;-67
2022/10/28 08:54:17;;;;;;;38.43;25.70;;;;;;;42.09;34.31;101209.75;5104368;28;20447;-68
2022/10/28 08:56:46;;;;;;;33.87;26.30;;;;;;;42.40;33.73;101209.47;5109531;28;21011;-68
2022/10/28 08:59:35;;;;;;;39.10;26.80;;;;;;;42.56;33.32;101196.88;5096305;28;20409;-68
2022/10/28 09:04:44;;;;;;;42.27;25.90;;;;;;;42.71;33.44;101206.44;5721604;23;20581;-70
2022/10/28 09:07:17;;;;;;;38.07;28.07;;;;;;;42.81;33.32;101202.53;4978227;28;20437;-70
2022/10/28 09:09:44;;;;;;;38.40;27.60;;;;;;;42.83;33.38;101201.03;4993878;28;20438;-69
2022/10/28 09:12:47;;;;;;;35.20;27.67;;;;;;;42.64;33.52;101192.53;4991896;28;20442;-68
2022/10/28 09:15:36;;;;;;;34.97;28.00;;;;;;;42.71;33.86;101192.00;4964799;28;20812;-69
2022/10/28 09:18:19;;;;;;;36.50;24.17;;;;;;;42.72;33.75;101193.59;5004644;28;20434;-69
2022/10/28 09:21:01;;;;;;;40.50;26.33;;;;;;;42.77;33.72;101191.47;4992741;28;20472;-70
2022/10/28 09:23:39;;;;;;;45.00;28.60;;;;;;;42.68;33.66;101179.81;4976666;28;20441;-72
2022/10/28 09:26:27;;;;;;;40.67;25.80;;;;;;;42.75;33.65;101177.34;5002960;28;20438;-72
2022/10/28 09:29:04;;;;;;;29.23;24.70;;;;;;;42.81;33.74;101175.22;4987621;28;20432;-71
2022/10/28 09:31:39;;;;;;;34.03;25.87;;;;;;;42.75;33.88;101179.28;4965701;28;20426;-69
2022/10/28 09:34:16;;;;;;;42.33;28.40;;;;;;;42.83;33.85;101171.03;4994599;28;20458;-74
2022/10/28 09:36:53;;;;;;;41.37;29.90;;;;;;;42.82;33.56;101182.28;5009331;28;20427;-71
2022/10/28 09:39:25;;;;;;;30.00;24.37;;;;;;;42.91;33.56;101183.81;4992860;28;20452;-72
2022/10/28 09:41:51;;;;;;;42.87;26.50;;;;;;;42.96;33.41;101177.34;4994338;28;20428;-72
2022/10/28 09:44:33;;;;;;;33.33;25.93;;;;;;;42.77;33.57;101187.94;5009272;28;20469;-71
2022/10/28 09:47:02;;;;;;;37.73;26.20;;;;;;;42.91;33.50;101181.09;4992687;28;20444;-72
2022/10/28 09:49:34;;;;;;;32.03;26.70;;;;;;;42.88;33.41;101178.22;4992888;28;20430;-71
2022/10/28 09:52:38;;;;;;;37.13;24.77;;;;;;;42.99;33.39;101181.38;4992676;28;20810;-73
2022/10/28 09:55:18;;;;;;;50.70;30.57;;;;;;;42.91;33.33;101174.84;4992412;28;20456;-73
2022/10/28 09:57:44;;;;;;;34.93;26.53;;;;;;;42.96;33.23;101182.81;4992691;28;20445;-72
2022/10/28 10:00:15;;;;;;;37.17;29.70;;;;;;;42.92;33.52;101177.22;4992672;28;20485;-72
2022/10/28 10:02:41;;;;;;;34.80;24.40;;;;;;;42.76;33.70;101167.25;4995691;28;20464;-71
2022/10/28 10:05:13;;;;;;;36.57;27.20;;;;;;;42.88;33.71;101159.91;4992292;28;20490;-71
2022/10/28 10:07:52;;;;;;;35.17;25.17;;;;;;;42.52;34.36;101160.47;4992546;28;20460;-70
2022/10/28 10:10:27;;;;;;;30.97;24.13;;;;;;;42.76;33.91;101159.06;4959464;28;20469;-71
2022/10/28 10:12:59;;;;;;;31.93;23.50;;;;;;;42.99;33.22;101165.00;4982401;28;20425;-71
2022/10/28 10:15:42;;;;;;;24.40;21.73;;;;;;;43.00;33.65;101167.41;4960648;28;20448;-71
2022/10/28 10:18:15;;;;;;;32.97;22.70;;;;;;;42.85;33.58;101157.88;4976287;28;20441;-71
2022/10/28 10:20:57;;;;;;;34.77;27.00;;;;;;;42.93;33.45;101156.19;4975718;28;20465;-71
2022/10/28 10:23:34;;;;;;;26.43;21.00;;;;;;;42.99;33.34;101152.16;4982265;28;20429;-70
2022/10/28 10:26:07;;;;;;;28.07;19.90;;;;;;;43.01;33.09;101144.41;4992041;28;20435;-70
2022/10/28 10:28:37;;;;;;;29.87;21.90;;;;;;;43.23;33.41;101142.47;4992173;28;20429;-72
2022/10/28 10:31:06;;;;;;;33.40;18.67;;;;;;;43.21;33.05;101134.59;4989836;28;20537;-71
2022/10/28 10:33:39;;;;;;;26.93;19.20;;;;;;;43.28;33.14;101123.94;4967828;28;20516;-71
2022/10/28 10:36:08;;;;;;;29.40;18.97;;;;;;;43.36;32.60;101122.25;4991971;28;20429;-71
2022/10/28 10:38:36;;;;;;;29.47;15.60;;;;;;;43.29;32.84;101113.81;4992215;28;20452;-71
2022/10/28 10:41:02;;;;;;;27.17;16.33;;;;;;;43.45;32.44;101114.75;4993359;28;20464;-71
2022/10/28 10:43:34;;;;;;;24.90;17.30;;;;;;;43.36;32.13;101109.38;4991822;28;20819;-69
2022/10/28 10:46:16;;;;;;;21.67;17.10;;;;;;;43.30;32.14;101116.19;4992023;28;20483;-71
2022/10/28 10:48:43;;;;;;;23.67;16.70;;;;;;;43.50;32.35;101097.38;4962841;28;20840;-70
2022/10/28 10:51:35;;;;;;;28.57;16.83;;;;;;;43.55;32.25;101094.41;4991853;28;20947;-69
2022/10/28 10:54:01;;;;;;;31.67;18.67;;;;;;;43.58;32.15;101093.72;4989072;28;20437;-69
2022/10/28 10:56:30;;;;;;;31.83;17.47;;;;;;;43.58;31.98;101094.50;4991868;28;20425;-69
2022/10/28 10:59:01;;;;;;;24.40;15.60;;;;;;;43.55;31.84;101088.94;4975959;28;20463;-69
2022/10/28 11:01:38;;;;;;;18.30;14.90;;;;;;;43.56;32.01;101091.34;4991822;28;21014;-69
2022/10/28 11:04:06;;;;;;;23.60;14.40;;;;;;;43.61;32.17;101087.59;4975568;28;20511;-69
2022/10/28 11:06:42;;;;;;;16.90;13.77;;;;;;;43.55;31.73;101080.75;4975293;28;20469;-70
2022/10/28 11:09:34;;;;;;;20.43;15.40;;;;;;;43.52;31.96;101074.03;4963150;28;20489;-69
2022/10/28 11:12:00;;;;;;;26.43;15.20;;;;;;;43.52;32.18;101074.03;4984025;28;20472;-69
2022/10/28 11:14:31;;;;;;;16.27;11.97;;;;;;;43.65;31.72;101077.59;4992833;28;20523;-68
2022/10/28 11:17:00;;;;;;;28.33;13.57;;;;;;;43.59;31.73;101068.03;4975751;28;20553;-68
2022/10/28 11:19:32;;;;;;;21.57;11.67;;;;;;;43.51;31.43;101058.78;4991639;28;20911;-70
2022/10/28 11:22:22;;;;;;;21.10;11.17;;;;;;;43.64;31.49;101059.56;4971703;28;20483;-69
2022/10/28 11:25:18;;;;;;;14.17;9.00;;;;;;;43.53;31.04;101047.53;4962973;28;20472;-69
2022/10/28 11:28:00;;;;;;;15.20;10.67;;;;;;;43.55;31.20;101032.38;4991394;28;20433;-69
2022/10/28 11:30:42;;;;;;;19.23;10.23;;;;;;;43.59;30.48;101030.56;4991436;28;20528;-69
2022/10/28 11:33:18;;;;;;;15.13;9.80;;;;;;;43.69;31.02;101040.22;4996170;28;20428;-68
2022/10/28 11:36:13;;;;;;;23.70;10.27;;;;;;;43.58;30.84;101036.34;4995467;28;20429;-69
2022/10/28 11:38:48;;;;;;;14.27;8.70;;;;;;;43.66;31.28;101032.72;4942209;28;20863;-71
2022/10/28 11:41:43;;;;;;;15.53;9.83;;;;;;;43.72;30.37;101034.09;4986638;28;20460;-71
2022/10/28 11:44:27;;;;;;;15.77;8.93;;;;;;;43.71;30.49;101027.81;4994760;28;20437;-71
2022/10/28 11:47:14;;;;;;;15.67;8.30;;;;;;;43.72;29.84;101025.88;4994765;28;20421;-71
2022/10/28 11:50:19;;;;;;;15.17;9.33;;;;;;;43.68;30.22;101025.75;4995041;28;20476;-71
2022/10/28 11:52:48;;;;;;;18.03;9.60;;;;;;;43.66;30.60;101017.13;4962891;28;20488;-71
2022/10/28 11:55:32;;;;;;;13.47;7.33;;;;;;;43.63;30.29;101011.53;4995117;28;20964;-70
2022/10/28 11:58:07;;;;;;;11.93;8.43;;;;;;;43.62;30.67;101013.47;4995111;28;20436;-70
2022/10/28 12:00:57;;;;;;;12.43;7.60;;;;;;;43.67;30.29;101015.19;4995886;28;20979;-71
2022/10/28 12:03:57;;;;;;;11.60;6.57;;;;;;;43.62;30.31;101002.56;4996274;28;20448;-70
2022/10/28 12:06:50;;;;;;;17.40;8.17;;;;;;;43.54;30.45;101000.75;4994610;28;20489;-71
2022/10/28 12:09:44;;;;;;;18.43;7.27;;;;;;;43.48;30.30;100995.84;4979656;28;20485;-70
2022/10/28 12:12:21;;;;;;;14.20;8.33;;;;;;;43.72;30.07;100991.16;4991457;28;20430;-71
2022/10/28 12:14:55;;;;;;;16.47;7.63;;;;;;;43.65;30.00;100990.94;4978899;28;20848;-71
2022/10/28 12:18:02;;;;;;;17.40;8.03;;;;;;;43.66;30.32;100995.28;4991495;28;20461;-69
2022/10/28 12:20:40;;;;;;;12.30;6.73;;;;;;;43.57;30.13;100989.13;4990526;28;20516;-69
2022/10/28 12:23:14;;;;;;;13.77;7.23;;;;;;;43.39;30.33;100985.81;4994421;28;20429;-69
2022/10/28 12:25:42;;;;;;;11.70;7.60;;;;;;;43.36;30.44;100983.75;4995865;28;20969;-71
2022/10/28 12:28:24;;;;;;;13.67;8.10;;;;;;;43.45;30.14;100975.47;4995603;28;20437;-71
2022/10/28 12:30:51;;;;;;;14.87;7.33;;;;;;;43.39;30.21;100966.72;5011075;28;20528;-70
2022/10/28 12:33:36;;;;;;;18.93;8.90;;;;;;;43.54;30.32;100961.72;4994212;28;20445;-69
2022/10/28 12:36:07;;;;;;;12.50;7.50;;;;;;;43.47;30.68;100964.22;4994427;28;20472;-69
2022/10/28 12:38:41;;;;;;;18.03;7.83;;;;;;;43.55;30.23;100953.16;4978208;28;20462;-69
2022/10/28 12:41:25;;;;;;;13.17;7.43;;;;;;;43.54;30.47;100946.13;4959273;28;20465;-70